<?xml version="1.0" encoding="UTF-8" standalone="no" ?>
<gpx xmlns="http://www.topografix.com/GPX/1/1" xmlns:xsi="http://www.w3.org/2001/XMLSchema-instance" xsi:schemaLocation="http://www.topografix.com/GPX/1/1 http://www.topografix.com/GPX/1/1/gpx.xsd" version="1.1" creator="VisuGPX - https://www.visugpx.com">
  <metadata>
    <name>Le Sentier du Tour du Lac st Point </name>
    <desc><![CDATA[Le Sentier du Tour du Lac st Point ]]></desc>
  </metadata>
  <trk>
    <name><![CDATA[5141211-Le Sentier du Tour du Lac - Circuit 7]]></name>
    <trkseg>
      <trkpt lat="46.84777" lon="6.33481">
        <ele>858</ele>
        <time>2020-09-01T14:32:20Z</time>
      </trkpt>
      <trkpt lat="46.84767" lon="6.33461">
        <ele>858</ele>
        <time>2020-09-01T14:32:43Z</time>
      </trkpt>
      <trkpt lat="46.84748" lon="6.33476">
        <ele>860</ele>
        <time>2020-09-01T14:33:11Z</time>
      </trkpt>
      <trkpt lat="46.84725" lon="6.33488">
        <ele>861</ele>
        <time>2020-09-01T14:33:44Z</time>
      </trkpt>
      <trkpt lat="46.84703" lon="6.33472">
        <ele>861</ele>
        <time>2020-09-01T14:34:17Z</time>
      </trkpt>
      <trkpt lat="46.84643" lon="6.33444">
        <ele>863</ele>
        <time>2020-09-01T14:35:41Z</time>
      </trkpt>
      <trkpt lat="46.84631" lon="6.33426">
        <ele>863</ele>
        <time>2020-09-01T14:36:04Z</time>
      </trkpt>
      <trkpt lat="46.84625" lon="6.33412">
        <ele>863</ele>
        <time>2020-09-01T14:36:19Z</time>
      </trkpt>
      <trkpt lat="46.84593" lon="6.33379">
        <ele>861</ele>
        <time>2020-09-01T14:37:11Z</time>
      </trkpt>
      <trkpt lat="46.84523" lon="6.3333">
        <ele>861</ele>
        <time>2020-09-01T14:38:55Z</time>
      </trkpt>
      <trkpt lat="46.84491" lon="6.3331">
        <ele>859</ele>
        <time>2020-09-01T14:39:41Z</time>
      </trkpt>
      <trkpt lat="46.84475" lon="6.33304">
        <ele>858</ele>
        <time>2020-09-01T14:40:03Z</time>
      </trkpt>
      <trkpt lat="46.84465" lon="6.33308">
        <ele>858</ele>
        <time>2020-09-01T14:40:17Z</time>
      </trkpt>
      <trkpt lat="46.84458" lon="6.33317">
        <ele>857</ele>
        <time>2020-09-01T14:40:29Z</time>
      </trkpt>
      <trkpt lat="46.84458" lon="6.33332">
        <ele>858</ele>
        <time>2020-09-01T14:40:43Z</time>
      </trkpt>
      <trkpt lat="46.84497" lon="6.33375">
        <ele>859</ele>
        <time>2020-09-01T14:41:48Z</time>
      </trkpt>
      <trkpt lat="46.84513" lon="6.33405">
        <ele>859</ele>
        <time>2020-09-01T14:42:23Z</time>
      </trkpt>
      <trkpt lat="46.84512" lon="6.33421">
        <ele>859</ele>
        <time>2020-09-01T14:42:38Z</time>
      </trkpt>
      <trkpt lat="46.84503" lon="6.33428">
        <ele>858</ele>
        <time>2020-09-01T14:42:51Z</time>
      </trkpt>
      <trkpt lat="46.84464" lon="6.33426">
        <ele>855</ele>
        <time>2020-09-01T14:43:43Z</time>
      </trkpt>
      <trkpt lat="46.8445" lon="6.33431">
        <ele>854</ele>
        <time>2020-09-01T14:44:03Z</time>
      </trkpt>
      <trkpt lat="46.84433" lon="6.33447">
        <ele>853</ele>
        <time>2020-09-01T14:44:30Z</time>
      </trkpt>
      <trkpt lat="46.84424" lon="6.33459">
        <ele>852</ele>
        <time>2020-09-01T14:44:46Z</time>
      </trkpt>
      <trkpt lat="46.84373" lon="6.33535">
        <ele>854</ele>
        <time>2020-09-01T14:46:23Z</time>
      </trkpt>
      <trkpt lat="46.84363" lon="6.33546">
        <ele>855</ele>
        <time>2020-09-01T14:46:40Z</time>
      </trkpt>
      <trkpt lat="46.84325" lon="6.33573">
        <ele>857</ele>
        <time>2020-09-01T14:47:36Z</time>
      </trkpt>
      <trkpt lat="46.84305" lon="6.33573">
        <ele>857</ele>
        <time>2020-09-01T14:48:03Z</time>
      </trkpt>
      <trkpt lat="46.84237" lon="6.33542">
        <ele>856</ele>
        <time>2020-09-01T14:49:38Z</time>
      </trkpt>
      <trkpt lat="46.84205" lon="6.33542">
        <ele>859</ele>
        <time>2020-09-01T14:50:21Z</time>
      </trkpt>
      <trkpt lat="46.84181" lon="6.33538">
        <ele>861</ele>
        <time>2020-09-01T14:50:53Z</time>
      </trkpt>
      <trkpt lat="46.84171" lon="6.33534">
        <ele>861</ele>
        <time>2020-09-01T14:51:07Z</time>
      </trkpt>
      <trkpt lat="46.84124" lon="6.33501">
        <ele>856</ele>
        <time>2020-09-01T14:52:16Z</time>
      </trkpt>
      <trkpt lat="46.84113" lon="6.33496">
        <ele>855</ele>
        <time>2020-09-01T14:52:32Z</time>
      </trkpt>
      <trkpt lat="46.84087" lon="6.33492">
        <ele>855</ele>
        <time>2020-09-01T14:53:06Z</time>
      </trkpt>
      <trkpt lat="46.84058" lon="6.33492">
        <ele>855</ele>
        <time>2020-09-01T14:53:45Z</time>
      </trkpt>
      <trkpt lat="46.84029" lon="6.33503">
        <ele>854</ele>
        <time>2020-09-01T14:54:25Z</time>
      </trkpt>
      <trkpt lat="46.84013" lon="6.33521">
        <ele>855</ele>
        <time>2020-09-01T14:54:52Z</time>
      </trkpt>
      <trkpt lat="46.83959" lon="6.33601">
        <ele>855</ele>
        <time>2020-09-01T14:56:35Z</time>
      </trkpt>
      <trkpt lat="46.83944" lon="6.33628">
        <ele>854</ele>
        <time>2020-09-01T14:57:06Z</time>
      </trkpt>
      <trkpt lat="46.83911" lon="6.33652">
        <ele>851</ele>
        <time>2020-09-01T14:57:56Z</time>
      </trkpt>
      <trkpt lat="46.83899" lon="6.33666">
        <ele>851</ele>
        <time>2020-09-01T14:58:16Z</time>
      </trkpt>
      <trkpt lat="46.83856" lon="6.33731">
        <ele>852</ele>
        <time>2020-09-01T14:59:39Z</time>
      </trkpt>
      <trkpt lat="46.83838" lon="6.33773">
        <ele>851</ele>
        <time>2020-09-01T15:00:24Z</time>
      </trkpt>
      <trkpt lat="46.83839" lon="6.33792">
        <ele>852</ele>
        <time>2020-09-01T15:00:41Z</time>
      </trkpt>
      <trkpt lat="46.83836" lon="6.3381">
        <ele>853</ele>
        <time>2020-09-01T15:00:58Z</time>
      </trkpt>
      <trkpt lat="46.83814" lon="6.33851">
        <ele>853</ele>
        <time>2020-09-01T15:01:46Z</time>
      </trkpt>
      <trkpt lat="46.83809" lon="6.33855">
        <ele>853</ele>
        <time>2020-09-01T15:01:53Z</time>
      </trkpt>
      <trkpt lat="46.83797" lon="6.33851">
        <ele>852</ele>
        <time>2020-09-01T15:02:10Z</time>
      </trkpt>
      <trkpt lat="46.83792" lon="6.33855">
        <ele>852</ele>
        <time>2020-09-01T15:02:17Z</time>
      </trkpt>
      <trkpt lat="46.83759" lon="6.33901">
        <ele>853</ele>
        <time>2020-09-01T15:03:18Z</time>
      </trkpt>
      <trkpt lat="46.83732" lon="6.33928">
        <ele>853</ele>
        <time>2020-09-01T15:04:02Z</time>
      </trkpt>
      <trkpt lat="46.83713" lon="6.33928">
        <ele>852</ele>
        <time>2020-09-01T15:04:27Z</time>
      </trkpt>
      <trkpt lat="46.83654" lon="6.33942">
        <ele>850</ele>
        <time>2020-09-01T15:05:47Z</time>
      </trkpt>
      <trkpt lat="46.83615" lon="6.33945">
        <ele>851</ele>
        <time>2020-09-01T15:06:39Z</time>
      </trkpt>
      <trkpt lat="46.83558" lon="6.33968">
        <ele>853</ele>
        <time>2020-09-01T15:07:58Z</time>
      </trkpt>
      <trkpt lat="46.83534" lon="6.33971">
        <ele>853</ele>
        <time>2020-09-01T15:08:30Z</time>
      </trkpt>
      <trkpt lat="46.83489" lon="6.34">
        <ele>856</ele>
        <time>2020-09-01T15:09:36Z</time>
      </trkpt>
      <trkpt lat="46.83482" lon="6.34011">
        <ele>857</ele>
        <time>2020-09-01T15:09:50Z</time>
      </trkpt>
      <trkpt lat="46.83436" lon="6.34005">
        <ele>854</ele>
        <time>2020-09-01T15:10:51Z</time>
      </trkpt>
      <trkpt lat="46.83387" lon="6.34003">
        <ele>854</ele>
        <time>2020-09-01T15:11:57Z</time>
      </trkpt>
      <trkpt lat="46.8335" lon="6.33977">
        <ele>853</ele>
        <time>2020-09-01T15:12:51Z</time>
      </trkpt>
      <trkpt lat="46.83338" lon="6.33972">
        <ele>853</ele>
        <time>2020-09-01T15:13:08Z</time>
      </trkpt>
      <trkpt lat="46.83322" lon="6.33973">
        <ele>854</ele>
        <time>2020-09-01T15:13:29Z</time>
      </trkpt>
      <trkpt lat="46.83282" lon="6.33983">
        <ele>859</ele>
        <time>2020-09-01T15:14:24Z</time>
      </trkpt>
      <trkpt lat="46.83266" lon="6.33983">
        <ele>861</ele>
        <time>2020-09-01T15:14:45Z</time>
      </trkpt>
      <trkpt lat="46.83245" lon="6.33979">
        <ele>863</ele>
        <time>2020-09-01T15:15:13Z</time>
      </trkpt>
      <trkpt lat="46.83209" lon="6.33953">
        <ele>867</ele>
        <time>2020-09-01T15:16:07Z</time>
      </trkpt>
      <trkpt lat="46.8319" lon="6.33931">
        <ele>867</ele>
        <time>2020-09-01T15:16:39Z</time>
      </trkpt>
      <trkpt lat="46.83172" lon="6.339">
        <ele>865</ele>
        <time>2020-09-01T15:17:16Z</time>
      </trkpt>
      <trkpt lat="46.83133" lon="6.33849">
        <ele>860</ele>
        <time>2020-09-01T15:18:26Z</time>
      </trkpt>
      <trkpt lat="46.83099" lon="6.33812">
        <ele>859</ele>
        <time>2020-09-01T15:19:23Z</time>
      </trkpt>
      <trkpt lat="46.8302" lon="6.33745">
        <ele>868</ele>
        <time>2020-09-01T15:21:25Z</time>
      </trkpt>
      <trkpt lat="46.82995" lon="6.3372">
        <ele>872</ele>
        <time>2020-09-01T15:22:05Z</time>
      </trkpt>
      <trkpt lat="46.82915" lon="6.33657">
        <ele>880</ele>
        <time>2020-09-01T15:24:06Z</time>
      </trkpt>
      <trkpt lat="46.8289" lon="6.33627">
        <ele>887</ele>
        <time>2020-09-01T15:24:49Z</time>
      </trkpt>
      <trkpt lat="46.82879" lon="6.33627">
        <ele>892</ele>
        <time>2020-09-01T15:25:04Z</time>
      </trkpt>
      <trkpt lat="46.82835" lon="6.3355">
        <ele>887</ele>
        <time>2020-09-01T15:26:36Z</time>
      </trkpt>
      <trkpt lat="46.82785" lon="6.33511">
        <ele>892</ele>
        <time>2020-09-01T15:27:51Z</time>
      </trkpt>
      <trkpt lat="46.82774" lon="6.33506">
        <ele>893</ele>
        <time>2020-09-01T15:28:07Z</time>
      </trkpt>
      <trkpt lat="46.82764" lon="6.33493">
        <ele>894</ele>
        <time>2020-09-01T15:28:24Z</time>
      </trkpt>
      <trkpt lat="46.8276" lon="6.33476">
        <ele>892</ele>
        <time>2020-09-01T15:28:41Z</time>
      </trkpt>
      <trkpt lat="46.82755" lon="6.33402">
        <ele>885</ele>
        <time>2020-09-01T15:29:49Z</time>
      </trkpt>
      <trkpt lat="46.8274" lon="6.3336">
        <ele>885</ele>
        <time>2020-09-01T15:30:32Z</time>
      </trkpt>
      <trkpt lat="46.82722" lon="6.33328">
        <ele>885</ele>
        <time>2020-09-01T15:31:10Z</time>
      </trkpt>
      <trkpt lat="46.82751" lon="6.33298">
        <ele>880</ele>
        <time>2020-09-01T15:31:57Z</time>
      </trkpt>
      <trkpt lat="46.82765" lon="6.33265">
        <ele>876</ele>
        <time>2020-09-01T15:32:33Z</time>
      </trkpt>
      <trkpt lat="46.82772" lon="6.33236">
        <ele>873</ele>
        <time>2020-09-01T15:33:01Z</time>
      </trkpt>
      <trkpt lat="46.8277" lon="6.33188">
        <ele>870</ele>
        <time>2020-09-01T15:33:45Z</time>
      </trkpt>
      <trkpt lat="46.82765" lon="6.33175">
        <ele>869</ele>
        <time>2020-09-01T15:33:58Z</time>
      </trkpt>
      <trkpt lat="46.82744" lon="6.33146">
        <ele>869</ele>
        <time>2020-09-01T15:34:37Z</time>
      </trkpt>
      <trkpt lat="46.82685" lon="6.33076">
        <ele>868</ele>
        <time>2020-09-01T15:36:18Z</time>
      </trkpt>
      <trkpt lat="46.82542" lon="6.32928">
        <ele>866</ele>
        <time>2020-09-01T15:40:12Z</time>
      </trkpt>
      <trkpt lat="46.82505" lon="6.329">
        <ele>864</ele>
        <time>2020-09-01T15:41:08Z</time>
      </trkpt>
      <trkpt lat="46.82461" lon="6.32873">
        <ele>864</ele>
        <time>2020-09-01T15:42:11Z</time>
      </trkpt>
      <trkpt lat="46.82344" lon="6.32784">
        <ele>864</ele>
        <time>2020-09-01T15:45:07Z</time>
      </trkpt>
      <trkpt lat="46.82294" lon="6.32751">
        <ele>861</ele>
        <time>2020-09-01T15:46:21Z</time>
      </trkpt>
      <trkpt lat="46.82254" lon="6.32736">
        <ele>860</ele>
        <time>2020-09-01T15:47:16Z</time>
      </trkpt>
      <trkpt lat="46.82218" lon="6.32732">
        <ele>860</ele>
        <time>2020-09-01T15:48:04Z</time>
      </trkpt>
      <trkpt lat="46.82201" lon="6.32727">
        <ele>860</ele>
        <time>2020-09-01T15:48:27Z</time>
      </trkpt>
      <trkpt lat="46.82142" lon="6.3268">
        <ele>856</ele>
        <time>2020-09-01T15:49:57Z</time>
      </trkpt>
      <trkpt lat="46.82103" lon="6.32639">
        <ele>852</ele>
        <time>2020-09-01T15:51:01Z</time>
      </trkpt>
      <trkpt lat="46.82092" lon="6.32633">
        <ele>852</ele>
        <time>2020-09-01T15:51:17Z</time>
      </trkpt>
      <trkpt lat="46.82043" lon="6.32618">
        <ele>855</ele>
        <time>2020-09-01T15:52:23Z</time>
      </trkpt>
      <trkpt lat="46.81961" lon="6.32584">
        <ele>865</ele>
        <time>2020-09-01T15:54:17Z</time>
      </trkpt>
      <trkpt lat="46.81942" lon="6.32572">
        <ele>868</ele>
        <time>2020-09-01T15:54:45Z</time>
      </trkpt>
      <trkpt lat="46.81924" lon="6.32556">
        <ele>869</ele>
        <time>2020-09-01T15:55:13Z</time>
      </trkpt>
      <trkpt lat="46.81868" lon="6.32493">
        <ele>867</ele>
        <time>2020-09-01T15:56:47Z</time>
      </trkpt>
      <trkpt lat="46.81841" lon="6.32444">
        <ele>865</ele>
        <time>2020-09-01T15:57:45Z</time>
      </trkpt>
      <trkpt lat="46.81864" lon="6.32399">
        <ele>857</ele>
        <time>2020-09-01T15:58:36Z</time>
      </trkpt>
      <trkpt lat="46.8187" lon="6.32379">
        <ele>855</ele>
        <time>2020-09-01T15:58:56Z</time>
      </trkpt>
      <trkpt lat="46.81898" lon="6.32325">
        <ele>850</ele>
        <time>2020-09-01T15:59:58Z</time>
      </trkpt>
      <trkpt lat="46.81901" lon="6.32314">
        <ele>850</ele>
        <time>2020-09-01T16:00:08Z</time>
      </trkpt>
      <trkpt lat="46.819" lon="6.32307">
        <ele>850</ele>
        <time>2020-09-01T16:00:15Z</time>
      </trkpt>
      <trkpt lat="46.81891" lon="6.32291">
        <ele>850</ele>
        <time>2020-09-01T16:00:34Z</time>
      </trkpt>
      <trkpt lat="46.81875" lon="6.32274">
        <ele>850</ele>
        <time>2020-09-01T16:01:00Z</time>
      </trkpt>
      <trkpt lat="46.81831" lon="6.32251">
        <ele>851</ele>
        <time>2020-09-01T16:02:03Z</time>
      </trkpt>
      <trkpt lat="46.81819" lon="6.32249">
        <ele>853</ele>
        <time>2020-09-01T16:02:19Z</time>
      </trkpt>
      <trkpt lat="46.81795" lon="6.32275">
        <ele>857</ele>
        <time>2020-09-01T16:02:59Z</time>
      </trkpt>
      <trkpt lat="46.81786" lon="6.32274">
        <ele>858</ele>
        <time>2020-09-01T16:03:11Z</time>
      </trkpt>
      <trkpt lat="46.81729" lon="6.32193">
        <ele>856</ele>
        <time>2020-09-01T16:04:57Z</time>
      </trkpt>
      <trkpt lat="46.81715" lon="6.32164">
        <ele>855</ele>
        <time>2020-09-01T16:05:29Z</time>
      </trkpt>
      <trkpt lat="46.81714" lon="6.32146">
        <ele>854</ele>
        <time>2020-09-01T16:05:46Z</time>
      </trkpt>
      <trkpt lat="46.81694" lon="6.32092">
        <ele>855</ele>
        <time>2020-09-01T16:06:42Z</time>
      </trkpt>
      <trkpt lat="46.81684" lon="6.32025">
        <ele>854</ele>
        <time>2020-09-01T16:07:44Z</time>
      </trkpt>
      <trkpt lat="46.81663" lon="6.31944">
        <ele>851</ele>
        <time>2020-09-01T16:09:04Z</time>
      </trkpt>
      <trkpt lat="46.8166" lon="6.31918">
        <ele>849</ele>
        <time>2020-09-01T16:09:28Z</time>
      </trkpt>
      <trkpt lat="46.81656" lon="6.31908">
        <ele>849</ele>
        <time>2020-09-01T16:09:38Z</time>
      </trkpt>
      <trkpt lat="46.81627" lon="6.31875">
        <ele>850</ele>
        <time>2020-09-01T16:10:27Z</time>
      </trkpt>
      <trkpt lat="46.81611" lon="6.31836">
        <ele>849</ele>
        <time>2020-09-01T16:11:09Z</time>
      </trkpt>
      <trkpt lat="46.81569" lon="6.31788">
        <ele>849</ele>
        <time>2020-09-01T16:12:20Z</time>
      </trkpt>
      <trkpt lat="46.81546" lon="6.31754">
        <ele>849</ele>
        <time>2020-09-01T16:13:04Z</time>
      </trkpt>
      <trkpt lat="46.81536" lon="6.31747">
        <ele>850</ele>
        <time>2020-09-01T16:13:18Z</time>
      </trkpt>
      <trkpt lat="46.81527" lon="6.31751">
        <ele>850</ele>
        <time>2020-09-01T16:13:31Z</time>
      </trkpt>
      <trkpt lat="46.815" lon="6.31773">
        <ele>851</ele>
        <time>2020-09-01T16:14:12Z</time>
      </trkpt>
      <trkpt lat="46.81457" lon="6.31803">
        <ele>853</ele>
        <time>2020-09-01T16:15:16Z</time>
      </trkpt>
      <trkpt lat="46.81451" lon="6.31802">
        <ele>853</ele>
        <time>2020-09-01T16:15:24Z</time>
      </trkpt>
      <trkpt lat="46.81429" lon="6.31772">
        <ele>854</ele>
        <time>2020-09-01T16:16:04Z</time>
      </trkpt>
      <trkpt lat="46.81401" lon="6.3175">
        <ele>856</ele>
        <time>2020-09-01T16:16:46Z</time>
      </trkpt>
      <trkpt lat="46.81391" lon="6.31738">
        <ele>856</ele>
        <time>2020-09-01T16:17:04Z</time>
      </trkpt>
      <trkpt lat="46.81378" lon="6.31703">
        <ele>856</ele>
        <time>2020-09-01T16:17:40Z</time>
      </trkpt>
      <trkpt lat="46.81349" lon="6.31664">
        <ele>855</ele>
        <time>2020-09-01T16:18:33Z</time>
      </trkpt>
      <trkpt lat="46.81295" lon="6.31617">
        <ele>855</ele>
        <time>2020-09-01T16:19:57Z</time>
      </trkpt>
      <trkpt lat="46.81302" lon="6.3159">
        <ele>852</ele>
        <time>2020-09-01T16:20:23Z</time>
      </trkpt>
      <trkpt lat="46.81297" lon="6.31581">
        <ele>852</ele>
        <time>2020-09-01T16:20:33Z</time>
      </trkpt>
      <trkpt lat="46.81249" lon="6.31544">
        <ele>852</ele>
        <time>2020-09-01T16:21:46Z</time>
      </trkpt>
      <trkpt lat="46.81182" lon="6.31471">
        <ele>852</ele>
        <time>2020-09-01T16:23:37Z</time>
      </trkpt>
      <trkpt lat="46.81143" lon="6.31437">
        <ele>853</ele>
        <time>2020-09-01T16:24:38Z</time>
      </trkpt>
      <trkpt lat="46.8113" lon="6.31422">
        <ele>853</ele>
        <time>2020-09-01T16:25:00Z</time>
      </trkpt>
      <trkpt lat="46.81114" lon="6.31388">
        <ele>852</ele>
        <time>2020-09-01T16:25:38Z</time>
      </trkpt>
      <trkpt lat="46.81093" lon="6.31353">
        <ele>852</ele>
        <time>2020-09-01T16:26:20Z</time>
      </trkpt>
      <trkpt lat="46.81026" lon="6.31259">
        <ele>854</ele>
        <time>2020-09-01T16:28:24Z</time>
      </trkpt>
      <trkpt lat="46.80966" lon="6.31202">
        <ele>854</ele>
        <time>2020-09-01T16:30:00Z</time>
      </trkpt>
      <trkpt lat="46.80918" lon="6.31145">
        <ele>851</ele>
        <time>2020-09-01T16:31:22Z</time>
      </trkpt>
      <trkpt lat="46.80899" lon="6.3112">
        <ele>852</ele>
        <time>2020-09-01T16:31:56Z</time>
      </trkpt>
      <trkpt lat="46.80876" lon="6.31079">
        <ele>850</ele>
        <time>2020-09-01T16:32:45Z</time>
      </trkpt>
      <trkpt lat="46.80872" lon="6.31076">
        <ele>851</ele>
        <time>2020-09-01T16:32:51Z</time>
      </trkpt>
      <trkpt lat="46.80854" lon="6.31086">
        <ele>852</ele>
        <time>2020-09-01T16:33:17Z</time>
      </trkpt>
      <trkpt lat="46.80783" lon="6.30971">
        <ele>852</ele>
        <time>2020-09-01T16:35:38Z</time>
      </trkpt>
      <trkpt lat="46.80783" lon="6.30945">
        <ele>851</ele>
        <time>2020-09-01T16:36:02Z</time>
      </trkpt>
      <trkpt lat="46.80773" lon="6.30962">
        <ele>852</ele>
        <time>2020-09-01T16:36:22Z</time>
      </trkpt>
      <trkpt lat="46.80691" lon="6.30839">
        <ele>852</ele>
        <time>2020-09-01T16:38:59Z</time>
      </trkpt>
      <trkpt lat="46.80686" lon="6.30838">
        <ele>852</ele>
        <time>2020-09-01T16:39:06Z</time>
      </trkpt>
      <trkpt lat="46.80681" lon="6.30841">
        <ele>853</ele>
        <time>2020-09-01T16:39:13Z</time>
      </trkpt>
      <trkpt lat="46.8065" lon="6.30871">
        <ele>857</ele>
        <time>2020-09-01T16:40:03Z</time>
      </trkpt>
      <trkpt lat="46.8053" lon="6.3083">
        <ele>864</ele>
        <time>2020-09-01T16:42:47Z</time>
      </trkpt>
      <trkpt lat="46.80502" lon="6.30828">
        <ele>866</ele>
        <time>2020-09-01T16:43:25Z</time>
      </trkpt>
      <trkpt lat="46.80477" lon="6.30823">
        <ele>868</ele>
        <time>2020-09-01T16:43:58Z</time>
      </trkpt>
      <trkpt lat="46.80463" lon="6.30828">
        <ele>869</ele>
        <time>2020-09-01T16:44:17Z</time>
      </trkpt>
      <trkpt lat="46.80456" lon="6.30824">
        <ele>869</ele>
        <time>2020-09-01T16:44:27Z</time>
      </trkpt>
      <trkpt lat="46.80447" lon="6.30809">
        <ele>869</ele>
        <time>2020-09-01T16:44:46Z</time>
      </trkpt>
      <trkpt lat="46.8035" lon="6.30685">
        <ele>868</ele>
        <time>2020-09-01T16:47:38Z</time>
      </trkpt>
      <trkpt lat="46.80347" lon="6.30597">
        <ele>860</ele>
        <time>2020-09-01T16:48:58Z</time>
      </trkpt>
      <trkpt lat="46.80338" lon="6.30588">
        <ele>860</ele>
        <time>2020-09-01T16:49:13Z</time>
      </trkpt>
      <trkpt lat="46.80242" lon="6.30521">
        <ele>857</ele>
        <time>2020-09-01T16:51:35Z</time>
      </trkpt>
      <trkpt lat="46.80228" lon="6.30509">
        <ele>857</ele>
        <time>2020-09-01T16:51:56Z</time>
      </trkpt>
      <trkpt lat="46.80214" lon="6.30503">
        <ele>858</ele>
        <time>2020-09-01T16:52:16Z</time>
      </trkpt>
      <trkpt lat="46.80233" lon="6.30469">
        <ele>853</ele>
        <time>2020-09-01T16:52:56Z</time>
      </trkpt>
      <trkpt lat="46.80226" lon="6.30465">
        <ele>853</ele>
        <time>2020-09-01T16:53:06Z</time>
      </trkpt>
      <trkpt lat="46.80207" lon="6.30461">
        <ele>854</ele>
        <time>2020-09-01T16:53:32Z</time>
      </trkpt>
      <trkpt lat="46.80158" lon="6.30428">
        <ele>853</ele>
        <time>2020-09-01T16:54:44Z</time>
      </trkpt>
      <trkpt lat="46.80099" lon="6.30393">
        <ele>858</ele>
        <time>2020-09-01T16:56:09Z</time>
      </trkpt>
      <trkpt lat="46.80088" lon="6.30384">
        <ele>858</ele>
        <time>2020-09-01T16:56:25Z</time>
      </trkpt>
      <trkpt lat="46.80043" lon="6.30332">
        <ele>858</ele>
        <time>2020-09-01T16:57:42Z</time>
      </trkpt>
      <trkpt lat="46.79976" lon="6.30229">
        <ele>856</ele>
        <time>2020-09-01T16:59:52Z</time>
      </trkpt>
      <trkpt lat="46.79962" lon="6.30212">
        <ele>857</ele>
        <time>2020-09-01T17:00:16Z</time>
      </trkpt>
      <trkpt lat="46.79832" lon="6.30084">
        <ele>863</ele>
        <time>2020-09-01T17:03:45Z</time>
      </trkpt>
      <trkpt lat="46.79799" lon="6.30039">
        <ele>864</ele>
        <time>2020-09-01T17:04:45Z</time>
      </trkpt>
      <trkpt lat="46.79798" lon="6.30034">
        <ele>863</ele>
        <time>2020-09-01T17:04:50Z</time>
      </trkpt>
      <trkpt lat="46.79755" lon="6.29985">
        <ele>865</ele>
        <time>2020-09-01T17:06:03Z</time>
      </trkpt>
      <trkpt lat="46.79648" lon="6.298">
        <ele>857</ele>
        <time>2020-09-01T17:09:44Z</time>
      </trkpt>
      <trkpt lat="46.7962" lon="6.29742">
        <ele>859</ele>
        <time>2020-09-01T17:10:49Z</time>
      </trkpt>
      <trkpt lat="46.79611" lon="6.29711">
        <ele>859</ele>
        <time>2020-09-01T17:11:20Z</time>
      </trkpt>
      <trkpt lat="46.79591" lon="6.29659">
        <ele>858</ele>
        <time>2020-09-01T17:12:14Z</time>
      </trkpt>
      <trkpt lat="46.79573" lon="6.29624">
        <ele>855</ele>
        <time>2020-09-01T17:12:54Z</time>
      </trkpt>
      <trkpt lat="46.79567" lon="6.29619">
        <ele>855</ele>
        <time>2020-09-01T17:13:04Z</time>
      </trkpt>
      <trkpt lat="46.7952" lon="6.29598">
        <ele>854</ele>
        <time>2020-09-01T17:14:09Z</time>
      </trkpt>
      <trkpt lat="46.79456" lon="6.29585">
        <ele>857</ele>
        <time>2020-09-01T17:15:35Z</time>
      </trkpt>
      <trkpt lat="46.79437" lon="6.29577">
        <ele>858</ele>
        <time>2020-09-01T17:16:02Z</time>
      </trkpt>
      <trkpt lat="46.79421" lon="6.29567">
        <ele>859</ele>
        <time>2020-09-01T17:16:25Z</time>
      </trkpt>
      <trkpt lat="46.79396" lon="6.29528">
        <ele>858</ele>
        <time>2020-09-01T17:17:14Z</time>
      </trkpt>
      <trkpt lat="46.79369" lon="6.29494">
        <ele>859</ele>
        <time>2020-09-01T17:18:01Z</time>
      </trkpt>
      <trkpt lat="46.79356" lon="6.29484">
        <ele>859</ele>
        <time>2020-09-01T17:18:21Z</time>
      </trkpt>
      <trkpt lat="46.79344" lon="6.29482">
        <ele>861</ele>
        <time>2020-09-01T17:18:37Z</time>
      </trkpt>
      <trkpt lat="46.79337" lon="6.29486">
        <ele>862</ele>
        <time>2020-09-01T17:18:47Z</time>
      </trkpt>
      <trkpt lat="46.79325" lon="6.29472">
        <ele>861</ele>
        <time>2020-09-01T17:19:08Z</time>
      </trkpt>
      <trkpt lat="46.79295" lon="6.29427">
        <ele>856</ele>
        <time>2020-09-01T17:20:05Z</time>
      </trkpt>
      <trkpt lat="46.79283" lon="6.29419">
        <ele>856</ele>
        <time>2020-09-01T17:20:23Z</time>
      </trkpt>
      <trkpt lat="46.79269" lon="6.29399">
        <ele>856</ele>
        <time>2020-09-01T17:20:49Z</time>
      </trkpt>
      <trkpt lat="46.79251" lon="6.29384">
        <ele>856</ele>
        <time>2020-09-01T17:21:16Z</time>
      </trkpt>
      <trkpt lat="46.79231" lon="6.29387">
        <ele>858</ele>
        <time>2020-09-01T17:21:43Z</time>
      </trkpt>
      <trkpt lat="46.79229" lon="6.294">
        <ele>859</ele>
        <time>2020-09-01T17:21:55Z</time>
      </trkpt>
      <trkpt lat="46.79228" lon="6.29471">
        <ele>864</ele>
        <time>2020-09-01T17:23:00Z</time>
      </trkpt>
      <trkpt lat="46.79234" lon="6.29506">
        <ele>867</ele>
        <time>2020-09-01T17:23:33Z</time>
      </trkpt>
      <trkpt lat="46.79291" lon="6.29627">
        <ele>872</ele>
        <time>2020-09-01T17:25:47Z</time>
      </trkpt>
      <trkpt lat="46.79317" lon="6.29672">
        <ele>873</ele>
        <time>2020-09-01T17:26:41Z</time>
      </trkpt>
      <trkpt lat="46.79327" lon="6.29684">
        <ele>873</ele>
        <time>2020-09-01T17:26:58Z</time>
      </trkpt>
      <trkpt lat="46.79324" lon="6.29692">
        <ele>874</ele>
        <time>2020-09-01T17:27:07Z</time>
      </trkpt>
      <trkpt lat="46.79314" lon="6.29705">
        <ele>876</ele>
        <time>2020-09-01T17:27:25Z</time>
      </trkpt>
      <trkpt lat="46.79293" lon="6.29712">
        <ele>879</ele>
        <time>2020-09-01T17:27:53Z</time>
      </trkpt>
      <trkpt lat="46.79285" lon="6.2972">
        <ele>881</ele>
        <time>2020-09-01T17:28:06Z</time>
      </trkpt>
      <trkpt lat="46.79279" lon="6.2972">
        <ele>882</ele>
        <time>2020-09-01T17:28:14Z</time>
      </trkpt>
      <trkpt lat="46.79272" lon="6.29716">
        <ele>882</ele>
        <time>2020-09-01T17:28:24Z</time>
      </trkpt>
      <trkpt lat="46.79181" lon="6.29595">
        <ele>880</ele>
        <time>2020-09-01T17:31:09Z</time>
      </trkpt>
      <trkpt lat="46.79112" lon="6.29509">
        <ele>880</ele>
        <time>2020-09-01T17:33:10Z</time>
      </trkpt>
      <trkpt lat="46.79089" lon="6.29475">
        <ele>880</ele>
        <time>2020-09-01T17:33:53Z</time>
      </trkpt>
      <trkpt lat="46.7908" lon="6.29467">
        <ele>880</ele>
        <time>2020-09-01T17:34:07Z</time>
      </trkpt>
      <trkpt lat="46.79068" lon="6.29464">
        <ele>881</ele>
        <time>2020-09-01T17:34:24Z</time>
      </trkpt>
      <trkpt lat="46.79062" lon="6.2946">
        <ele>882</ele>
        <time>2020-09-01T17:34:32Z</time>
      </trkpt>
      <trkpt lat="46.79031" lon="6.29412">
        <ele>880</ele>
        <time>2020-09-01T17:35:33Z</time>
      </trkpt>
      <trkpt lat="46.78933" lon="6.29287">
        <ele>877</ele>
        <time>2020-09-01T17:38:26Z</time>
      </trkpt>
      <trkpt lat="46.78868" lon="6.29182">
        <ele>875</ele>
        <time>2020-09-01T17:40:36Z</time>
      </trkpt>
      <trkpt lat="46.78831" lon="6.29139">
        <ele>877</ele>
        <time>2020-09-01T17:41:39Z</time>
      </trkpt>
      <trkpt lat="46.78797" lon="6.29087">
        <ele>876</ele>
        <time>2020-09-01T17:42:45Z</time>
      </trkpt>
      <trkpt lat="46.78777" lon="6.29062">
        <ele>874</ele>
        <time>2020-09-01T17:43:20Z</time>
      </trkpt>
      <trkpt lat="46.78747" lon="6.29006">
        <ele>872</ele>
        <time>2020-09-01T17:44:25Z</time>
      </trkpt>
      <trkpt lat="46.78752" lon="6.28979">
        <ele>869</ele>
        <time>2020-09-01T17:44:50Z</time>
      </trkpt>
      <trkpt lat="46.78753" lon="6.28948">
        <ele>866</ele>
        <time>2020-09-01T17:45:19Z</time>
      </trkpt>
      <trkpt lat="46.78757" lon="6.28932">
        <ele>864</ele>
        <time>2020-09-01T17:45:34Z</time>
      </trkpt>
      <trkpt lat="46.78755" lon="6.28929">
        <ele>864</ele>
        <time>2020-09-01T17:45:38Z</time>
      </trkpt>
      <trkpt lat="46.78746" lon="6.28922">
        <ele>864</ele>
        <time>2020-09-01T17:45:52Z</time>
      </trkpt>
      <trkpt lat="46.78737" lon="6.28909">
        <ele>864</ele>
        <time>2020-09-01T17:46:08Z</time>
      </trkpt>
      <trkpt lat="46.78733" lon="6.28909">
        <ele>864</ele>
        <time>2020-09-01T17:46:14Z</time>
      </trkpt>
      <trkpt lat="46.78731" lon="6.28912">
        <ele>865</ele>
        <time>2020-09-01T17:46:18Z</time>
      </trkpt>
      <trkpt lat="46.78725" lon="6.28929">
        <ele>868</ele>
        <time>2020-09-01T17:46:35Z</time>
      </trkpt>
      <trkpt lat="46.78722" lon="6.28932">
        <ele>868</ele>
        <time>2020-09-01T17:46:40Z</time>
      </trkpt>
      <trkpt lat="46.78708" lon="6.28926">
        <ele>869</ele>
        <time>2020-09-01T17:46:59Z</time>
      </trkpt>
      <trkpt lat="46.78694" lon="6.28915">
        <ele>870</ele>
        <time>2020-09-01T17:47:21Z</time>
      </trkpt>
      <trkpt lat="46.78642" lon="6.28862">
        <ele>870</ele>
        <time>2020-09-01T17:48:45Z</time>
      </trkpt>
      <trkpt lat="46.78602" lon="6.28817">
        <ele>869</ele>
        <time>2020-09-01T17:49:53Z</time>
      </trkpt>
      <trkpt lat="46.78552" lon="6.28751">
        <ele>863</ele>
        <time>2020-09-01T17:51:23Z</time>
      </trkpt>
      <trkpt lat="46.78519" lon="6.28721">
        <ele>863</ele>
        <time>2020-09-01T17:52:14Z</time>
      </trkpt>
      <trkpt lat="46.78484" lon="6.28696">
        <ele>863</ele>
        <time>2020-09-01T17:53:06Z</time>
      </trkpt>
      <trkpt lat="46.78461" lon="6.28683">
        <ele>864</ele>
        <time>2020-09-01T17:53:39Z</time>
      </trkpt>
      <trkpt lat="46.78453" lon="6.28685">
        <ele>865</ele>
        <time>2020-09-01T17:53:50Z</time>
      </trkpt>
      <trkpt lat="46.78445" lon="6.28673">
        <ele>864</ele>
        <time>2020-09-01T17:54:05Z</time>
      </trkpt>
      <trkpt lat="46.78459" lon="6.2863">
        <ele>860</ele>
        <time>2020-09-01T17:54:49Z</time>
      </trkpt>
      <trkpt lat="46.78463" lon="6.28587">
        <ele>858</ele>
        <time>2020-09-01T17:55:29Z</time>
      </trkpt>
      <trkpt lat="46.78461" lon="6.28547">
        <ele>857</ele>
        <time>2020-09-01T17:56:05Z</time>
      </trkpt>
      <trkpt lat="46.78442" lon="6.2848">
        <ele>856</ele>
        <time>2020-09-01T17:57:12Z</time>
      </trkpt>
      <trkpt lat="46.78419" lon="6.2842">
        <ele>856</ele>
        <time>2020-09-01T17:58:14Z</time>
      </trkpt>
      <trkpt lat="46.78409" lon="6.28385">
        <ele>856</ele>
        <time>2020-09-01T17:58:49Z</time>
      </trkpt>
      <trkpt lat="46.78472" lon="6.28302">
        <ele>853</ele>
        <time>2020-09-01T18:00:42Z</time>
      </trkpt>
      <trkpt lat="46.78647" lon="6.28061">
        <ele>849</ele>
        <time>2020-09-01T18:06:03Z</time>
      </trkpt>
      <trkpt lat="46.78666" lon="6.28025">
        <ele>848</ele>
        <time>2020-09-01T18:06:45Z</time>
      </trkpt>
      <trkpt lat="46.78665" lon="6.28015">
        <ele>848</ele>
        <time>2020-09-01T18:06:54Z</time>
      </trkpt>
      <trkpt lat="46.78656" lon="6.28004">
        <ele>848</ele>
        <time>2020-09-01T18:07:10Z</time>
      </trkpt>
      <trkpt lat="46.78696" lon="6.27925">
        <ele>849</ele>
        <time>2020-09-01T18:08:39Z</time>
      </trkpt>
      <trkpt lat="46.78703" lon="6.27926">
        <ele>849</ele>
        <time>2020-09-01T18:08:49Z</time>
      </trkpt>
      <trkpt lat="46.78709" lon="6.27923">
        <ele>849</ele>
        <time>2020-09-01T18:08:57Z</time>
      </trkpt>
      <trkpt lat="46.78799" lon="6.27805">
        <ele>852</ele>
        <time>2020-09-01T18:11:39Z</time>
      </trkpt>
      <trkpt lat="46.788" lon="6.27779">
        <ele>852</ele>
        <time>2020-09-01T18:12:02Z</time>
      </trkpt>
      <trkpt lat="46.78806" lon="6.27772">
        <ele>852</ele>
        <time>2020-09-01T18:12:13Z</time>
      </trkpt>
      <trkpt lat="46.78819" lon="6.27765">
        <ele>852</ele>
        <time>2020-09-01T18:12:31Z</time>
      </trkpt>
      <trkpt lat="46.78839" lon="6.27764">
        <ele>854</ele>
        <time>2020-09-01T18:12:58Z</time>
      </trkpt>
      <trkpt lat="46.78922" lon="6.27779">
        <ele>864</ele>
        <time>2020-09-01T18:14:49Z</time>
      </trkpt>
      <trkpt lat="46.78974" lon="6.2781">
        <ele>870</ele>
        <time>2020-09-01T18:16:04Z</time>
      </trkpt>
      <trkpt lat="46.78997" lon="6.27827">
        <ele>873</ele>
        <time>2020-09-01T18:16:39Z</time>
      </trkpt>
      <trkpt lat="46.79008" lon="6.27829">
        <ele>874</ele>
        <time>2020-09-01T18:16:54Z</time>
      </trkpt>
      <trkpt lat="46.79026" lon="6.27821">
        <ele>875</ele>
        <time>2020-09-01T18:17:19Z</time>
      </trkpt>
      <trkpt lat="46.79066" lon="6.27789">
        <ele>878</ele>
        <time>2020-09-01T18:18:20Z</time>
      </trkpt>
      <trkpt lat="46.79123" lon="6.27944">
        <ele>890</ele>
        <time>2020-09-01T18:21:00Z</time>
      </trkpt>
      <trkpt lat="46.79141" lon="6.27963">
        <ele>893</ele>
        <time>2020-09-01T18:21:30Z</time>
      </trkpt>
      <trkpt lat="46.79191" lon="6.28031">
        <ele>897</ele>
        <time>2020-09-01T18:23:01Z</time>
      </trkpt>
      <trkpt lat="46.79283" lon="6.28126">
        <ele>900</ele>
        <time>2020-09-01T18:25:32Z</time>
      </trkpt>
      <trkpt lat="46.79321" lon="6.28176">
        <ele>900</ele>
        <time>2020-09-01T18:26:40Z</time>
      </trkpt>
      <trkpt lat="46.7943" lon="6.28353">
        <ele>900</ele>
        <time>2020-09-01T18:30:17Z</time>
      </trkpt>
      <trkpt lat="46.79453" lon="6.28389">
        <ele>900</ele>
        <time>2020-09-01T18:31:02Z</time>
      </trkpt>
      <trkpt lat="46.79479" lon="6.28424">
        <ele>899</ele>
        <time>2020-09-01T18:31:49Z</time>
      </trkpt>
      <trkpt lat="46.79496" lon="6.28437">
        <ele>898</ele>
        <time>2020-09-01T18:32:15Z</time>
      </trkpt>
      <trkpt lat="46.79526" lon="6.28452">
        <ele>896</ele>
        <time>2020-09-01T18:32:57Z</time>
      </trkpt>
      <trkpt lat="46.79537" lon="6.28461">
        <ele>895</ele>
        <time>2020-09-01T18:33:14Z</time>
      </trkpt>
      <trkpt lat="46.79548" lon="6.28471">
        <ele>894</ele>
        <time>2020-09-01T18:33:31Z</time>
      </trkpt>
      <trkpt lat="46.79567" lon="6.28496">
        <ele>892</ele>
        <time>2020-09-01T18:34:06Z</time>
      </trkpt>
      <trkpt lat="46.79619" lon="6.28547">
        <ele>888</ele>
        <time>2020-09-01T18:35:29Z</time>
      </trkpt>
      <trkpt lat="46.79699" lon="6.28595">
        <ele>884</ele>
        <time>2020-09-01T18:37:25Z</time>
      </trkpt>
      <trkpt lat="46.79712" lon="6.28606">
        <ele>883</ele>
        <time>2020-09-01T18:37:45Z</time>
      </trkpt>
      <trkpt lat="46.79734" lon="6.28632">
        <ele>883</ele>
        <time>2020-09-01T18:38:22Z</time>
      </trkpt>
      <trkpt lat="46.7975" lon="6.28645">
        <ele>883</ele>
        <time>2020-09-01T18:38:47Z</time>
      </trkpt>
      <trkpt lat="46.79781" lon="6.28662">
        <ele>880</ele>
        <time>2020-09-01T18:39:31Z</time>
      </trkpt>
      <trkpt lat="46.79966" lon="6.28721">
        <ele>873</ele>
        <time>2020-09-01T18:43:44Z</time>
      </trkpt>
      <trkpt lat="46.80002" lon="6.28737">
        <ele>873</ele>
        <time>2020-09-01T18:44:34Z</time>
      </trkpt>
      <trkpt lat="46.80038" lon="6.28762">
        <ele>872</ele>
        <time>2020-09-01T18:45:27Z</time>
      </trkpt>
      <trkpt lat="46.80068" lon="6.28773">
        <ele>872</ele>
        <time>2020-09-01T18:46:08Z</time>
      </trkpt>
      <trkpt lat="46.8008" lon="6.28776">
        <ele>873</ele>
        <time>2020-09-01T18:46:25Z</time>
      </trkpt>
      <trkpt lat="46.80096" lon="6.28773">
        <ele>873</ele>
        <time>2020-09-01T18:46:46Z</time>
      </trkpt>
      <trkpt lat="46.80127" lon="6.28745">
        <ele>874</ele>
        <time>2020-09-01T18:47:35Z</time>
      </trkpt>
      <trkpt lat="46.80165" lon="6.28697">
        <ele>877</ele>
        <time>2020-09-01T18:48:42Z</time>
      </trkpt>
      <trkpt lat="46.80247" lon="6.28794">
        <ele>881</ele>
        <time>2020-09-01T18:51:03Z</time>
      </trkpt>
      <trkpt lat="46.80322" lon="6.28872">
        <ele>882</ele>
        <time>2020-09-01T18:53:06Z</time>
      </trkpt>
      <trkpt lat="46.8056" lon="6.29091">
        <ele>889</ele>
        <time>2020-09-01T18:59:21Z</time>
      </trkpt>
      <trkpt lat="46.80608" lon="6.29104">
        <ele>892</ele>
        <time>2020-09-01T19:00:26Z</time>
      </trkpt>
      <trkpt lat="46.80633" lon="6.29148">
        <ele>889</ele>
        <time>2020-09-01T19:01:18Z</time>
      </trkpt>
      <trkpt lat="46.80647" lon="6.29166">
        <ele>888</ele>
        <time>2020-09-01T19:01:43Z</time>
      </trkpt>
      <trkpt lat="46.80764" lon="6.29241">
        <ele>889</ele>
        <time>2020-09-01T19:04:34Z</time>
      </trkpt>
      <trkpt lat="46.80858" lon="6.29309">
        <ele>888</ele>
        <time>2020-09-01T19:06:54Z</time>
      </trkpt>
      <trkpt lat="46.8093" lon="6.29357">
        <ele>887</ele>
        <time>2020-09-01T19:08:39Z</time>
      </trkpt>
      <trkpt lat="46.80961" lon="6.29387">
        <ele>887</ele>
        <time>2020-09-01T19:09:29Z</time>
      </trkpt>
      <trkpt lat="46.80975" lon="6.29402">
        <ele>886</ele>
        <time>2020-09-01T19:09:52Z</time>
      </trkpt>
      <trkpt lat="46.81002" lon="6.2945">
        <ele>885</ele>
        <time>2020-09-01T19:10:49Z</time>
      </trkpt>
      <trkpt lat="46.81071" lon="6.29554">
        <ele>886</ele>
        <time>2020-09-01T19:13:01Z</time>
      </trkpt>
      <trkpt lat="46.81082" lon="6.29567">
        <ele>887</ele>
        <time>2020-09-01T19:13:20Z</time>
      </trkpt>
      <trkpt lat="46.81178" lon="6.29635">
        <ele>884</ele>
        <time>2020-09-01T19:15:42Z</time>
      </trkpt>
      <trkpt lat="46.81206" lon="6.29663">
        <ele>882</ele>
        <time>2020-09-01T19:16:28Z</time>
      </trkpt>
      <trkpt lat="46.8123" lon="6.29723">
        <ele>879</ele>
        <time>2020-09-01T19:17:31Z</time>
      </trkpt>
      <trkpt lat="46.81318" lon="6.29902">
        <ele>870</ele>
        <time>2020-09-01T19:20:52Z</time>
      </trkpt>
      <trkpt lat="46.81336" lon="6.29944">
        <ele>867</ele>
        <time>2020-09-01T19:21:38Z</time>
      </trkpt>
      <trkpt lat="46.81364" lon="6.30045">
        <ele>866</ele>
        <time>2020-09-01T19:23:17Z</time>
      </trkpt>
      <trkpt lat="46.81361" lon="6.30067">
        <ele>864</ele>
        <time>2020-09-01T19:23:38Z</time>
      </trkpt>
      <trkpt lat="46.81339" lon="6.30107">
        <ele>861</ele>
        <time>2020-09-01T19:24:24Z</time>
      </trkpt>
      <trkpt lat="46.81361" lon="6.30139">
        <ele>862</ele>
        <time>2020-09-01T19:25:06Z</time>
      </trkpt>
      <trkpt lat="46.81362" lon="6.30151">
        <ele>861</ele>
        <time>2020-09-01T19:25:17Z</time>
      </trkpt>
      <trkpt lat="46.8136" lon="6.30167">
        <ele>861</ele>
        <time>2020-09-01T19:25:32Z</time>
      </trkpt>
      <trkpt lat="46.81334" lon="6.30239">
        <ele>857</ele>
        <time>2020-09-01T19:26:46Z</time>
      </trkpt>
      <trkpt lat="46.81316" lon="6.30269">
        <ele>857</ele>
        <time>2020-09-01T19:27:23Z</time>
      </trkpt>
      <trkpt lat="46.81322" lon="6.30278">
        <ele>857</ele>
        <time>2020-09-01T19:27:34Z</time>
      </trkpt>
      <trkpt lat="46.81358" lon="6.30316">
        <ele>860</ele>
        <time>2020-09-01T19:28:33Z</time>
      </trkpt>
      <trkpt lat="46.81445" lon="6.30388">
        <ele>871</ele>
        <time>2020-09-01T19:30:47Z</time>
      </trkpt>
      <trkpt lat="46.81461" lon="6.30404">
        <ele>872</ele>
        <time>2020-09-01T19:31:13Z</time>
      </trkpt>
      <trkpt lat="46.81497" lon="6.30472">
        <ele>873</ele>
        <time>2020-09-01T19:32:31Z</time>
      </trkpt>
      <trkpt lat="46.8151" lon="6.30491">
        <ele>873</ele>
        <time>2020-09-01T19:32:56Z</time>
      </trkpt>
      <trkpt lat="46.81609" lon="6.3062">
        <ele>874</ele>
        <time>2020-09-01T19:35:53Z</time>
      </trkpt>
      <trkpt lat="46.81642" lon="6.30659">
        <ele>874</ele>
        <time>2020-09-01T19:36:49Z</time>
      </trkpt>
      <trkpt lat="46.81681" lon="6.30699">
        <ele>873</ele>
        <time>2020-09-01T19:37:53Z</time>
      </trkpt>
      <trkpt lat="46.81766" lon="6.30765">
        <ele>871</ele>
        <time>2020-09-01T19:40:01Z</time>
      </trkpt>
      <trkpt lat="46.81793" lon="6.30781">
        <ele>872</ele>
        <time>2020-09-01T19:40:40Z</time>
      </trkpt>
      <trkpt lat="46.81802" lon="6.30782">
        <ele>873</ele>
        <time>2020-09-01T19:40:52Z</time>
      </trkpt>
      <trkpt lat="46.81828" lon="6.30778">
        <ele>874</ele>
        <time>2020-09-01T19:41:27Z</time>
      </trkpt>
      <trkpt lat="46.8185" lon="6.30767">
        <ele>876</ele>
        <time>2020-09-01T19:41:58Z</time>
      </trkpt>
      <trkpt lat="46.81855" lon="6.3077">
        <ele>877</ele>
        <time>2020-09-01T19:42:05Z</time>
      </trkpt>
      <trkpt lat="46.81861" lon="6.3078">
        <ele>877</ele>
        <time>2020-09-01T19:42:18Z</time>
      </trkpt>
      <trkpt lat="46.8187" lon="6.30857">
        <ele>877</ele>
        <time>2020-09-01T19:43:29Z</time>
      </trkpt>
      <trkpt lat="46.81885" lon="6.30909">
        <ele>877</ele>
        <time>2020-09-01T19:44:20Z</time>
      </trkpt>
      <trkpt lat="46.81908" lon="6.30955">
        <ele>876</ele>
        <time>2020-09-01T19:45:12Z</time>
      </trkpt>
      <trkpt lat="46.81976" lon="6.31053">
        <ele>874</ele>
        <time>2020-09-01T19:47:20Z</time>
      </trkpt>
      <trkpt lat="46.81988" lon="6.31066">
        <ele>873</ele>
        <time>2020-09-01T19:47:40Z</time>
      </trkpt>
      <trkpt lat="46.82029" lon="6.31097">
        <ele>873</ele>
        <time>2020-09-01T19:48:41Z</time>
      </trkpt>
      <trkpt lat="46.82062" lon="6.31118">
        <ele>873</ele>
        <time>2020-09-01T19:49:29Z</time>
      </trkpt>
      <trkpt lat="46.82089" lon="6.31129">
        <ele>873</ele>
        <time>2020-09-01T19:50:07Z</time>
      </trkpt>
      <trkpt lat="46.82101" lon="6.31131">
        <ele>873</ele>
        <time>2020-09-01T19:50:23Z</time>
      </trkpt>
      <trkpt lat="46.82159" lon="6.31128">
        <ele>872</ele>
        <time>2020-09-01T19:51:40Z</time>
      </trkpt>
      <trkpt lat="46.82208" lon="6.31113">
        <ele>872</ele>
        <time>2020-09-01T19:52:47Z</time>
      </trkpt>
      <trkpt lat="46.82265" lon="6.31013">
        <ele>875</ele>
        <time>2020-09-01T19:54:46Z</time>
      </trkpt>
      <trkpt lat="46.82288" lon="6.30968">
        <ele>876</ele>
        <time>2020-09-01T19:55:37Z</time>
      </trkpt>
      <trkpt lat="46.82308" lon="6.30913">
        <ele>877</ele>
        <time>2020-09-01T19:56:34Z</time>
      </trkpt>
      <trkpt lat="46.82331" lon="6.3083">
        <ele>879</ele>
        <time>2020-09-01T19:57:56Z</time>
      </trkpt>
      <trkpt lat="46.82377" lon="6.30861">
        <ele>876</ele>
        <time>2020-09-01T19:59:04Z</time>
      </trkpt>
      <trkpt lat="46.82441" lon="6.30919">
        <ele>872</ele>
        <time>2020-09-01T20:00:44Z</time>
      </trkpt>
      <trkpt lat="46.82491" lon="6.3091">
        <ele>873</ele>
        <time>2020-09-01T20:01:51Z</time>
      </trkpt>
      <trkpt lat="46.82515" lon="6.3092">
        <ele>874</ele>
        <time>2020-09-01T20:02:25Z</time>
      </trkpt>
      <trkpt lat="46.82529" lon="6.30919">
        <ele>875</ele>
        <time>2020-09-01T20:02:43Z</time>
      </trkpt>
      <trkpt lat="46.8258" lon="6.30945">
        <ele>877</ele>
        <time>2020-09-01T20:03:55Z</time>
      </trkpt>
      <trkpt lat="46.82582" lon="6.30952">
        <ele>877</ele>
        <time>2020-09-01T20:04:02Z</time>
      </trkpt>
      <trkpt lat="46.8262" lon="6.30956">
        <ele>882</ele>
        <time>2020-09-01T20:04:53Z</time>
      </trkpt>
      <trkpt lat="46.82645" lon="6.30965">
        <ele>885</ele>
        <time>2020-09-01T20:05:28Z</time>
      </trkpt>
      <trkpt lat="46.82655" lon="6.30973">
        <ele>885</ele>
        <time>2020-09-01T20:05:43Z</time>
      </trkpt>
      <trkpt lat="46.82705" lon="6.31046">
        <ele>887</ele>
        <time>2020-09-01T20:07:17Z</time>
      </trkpt>
      <trkpt lat="46.82717" lon="6.31056">
        <ele>888</ele>
        <time>2020-09-01T20:07:35Z</time>
      </trkpt>
      <trkpt lat="46.8273" lon="6.31063">
        <ele>889</ele>
        <time>2020-09-01T20:07:54Z</time>
      </trkpt>
      <trkpt lat="46.82743" lon="6.31077">
        <ele>890</ele>
        <time>2020-09-01T20:08:15Z</time>
      </trkpt>
      <trkpt lat="46.82818" lon="6.31173">
        <ele>895</ele>
        <time>2020-09-01T20:10:29Z</time>
      </trkpt>
      <trkpt lat="46.82946" lon="6.31324">
        <ele>898</ele>
        <time>2020-09-01T20:14:08Z</time>
      </trkpt>
      <trkpt lat="46.82954" lon="6.31326">
        <ele>898</ele>
        <time>2020-09-01T20:14:19Z</time>
      </trkpt>
      <trkpt lat="46.82957" lon="6.31311">
        <ele>899</ele>
        <time>2020-09-01T20:14:33Z</time>
      </trkpt>
      <trkpt lat="46.82969" lon="6.31279">
        <ele>901</ele>
        <time>2020-09-01T20:15:06Z</time>
      </trkpt>
      <trkpt lat="46.82969" lon="6.31266">
        <ele>901</ele>
        <time>2020-09-01T20:15:18Z</time>
      </trkpt>
      <trkpt lat="46.83009" lon="6.31307">
        <ele>903</ele>
        <time>2020-09-01T20:16:24Z</time>
      </trkpt>
      <trkpt lat="46.83023" lon="6.31318">
        <ele>904</ele>
        <time>2020-09-01T20:16:45Z</time>
      </trkpt>
      <trkpt lat="46.83096" lon="6.31401">
        <ele>906</ele>
        <time>2020-09-01T20:18:48Z</time>
      </trkpt>
      <trkpt lat="46.83138" lon="6.31438">
        <ele>907</ele>
        <time>2020-09-01T20:19:54Z</time>
      </trkpt>
      <trkpt lat="46.83228" lon="6.3155">
        <ele>903</ele>
        <time>2020-09-01T20:22:31Z</time>
      </trkpt>
      <trkpt lat="46.83278" lon="6.316">
        <ele>904</ele>
        <time>2020-09-01T20:23:52Z</time>
      </trkpt>
      <trkpt lat="46.83327" lon="6.31666">
        <ele>902</ele>
        <time>2020-09-01T20:25:21Z</time>
      </trkpt>
      <trkpt lat="46.83351" lon="6.31688">
        <ele>902</ele>
        <time>2020-09-01T20:25:59Z</time>
      </trkpt>
      <trkpt lat="46.83382" lon="6.31734">
        <ele>901</ele>
        <time>2020-09-01T20:26:58Z</time>
      </trkpt>
      <trkpt lat="46.83405" lon="6.31761">
        <ele>901</ele>
        <time>2020-09-01T20:27:37Z</time>
      </trkpt>
      <trkpt lat="46.83428" lon="6.31779">
        <ele>901</ele>
        <time>2020-09-01T20:28:12Z</time>
      </trkpt>
      <trkpt lat="46.83441" lon="6.31782">
        <ele>903</ele>
        <time>2020-09-01T20:28:30Z</time>
      </trkpt>
      <trkpt lat="46.83472" lon="6.31777">
        <ele>907</ele>
        <time>2020-09-01T20:29:11Z</time>
      </trkpt>
      <trkpt lat="46.83483" lon="6.3178">
        <ele>909</ele>
        <time>2020-09-01T20:29:26Z</time>
      </trkpt>
      <trkpt lat="46.83491" lon="6.31789">
        <ele>909</ele>
        <time>2020-09-01T20:29:40Z</time>
      </trkpt>
      <trkpt lat="46.83495" lon="6.31801">
        <ele>909</ele>
        <time>2020-09-01T20:29:52Z</time>
      </trkpt>
      <trkpt lat="46.83491" lon="6.31854">
        <ele>906</ele>
        <time>2020-09-01T20:30:40Z</time>
      </trkpt>
      <trkpt lat="46.83499" lon="6.31884">
        <ele>906</ele>
        <time>2020-09-01T20:31:10Z</time>
      </trkpt>
      <trkpt lat="46.83509" lon="6.31904">
        <ele>906</ele>
        <time>2020-09-01T20:31:32Z</time>
      </trkpt>
      <trkpt lat="46.83547" lon="6.31961">
        <ele>906</ele>
        <time>2020-09-01T20:32:45Z</time>
      </trkpt>
      <trkpt lat="46.83549" lon="6.32">
        <ele>901</ele>
        <time>2020-09-01T20:33:21Z</time>
      </trkpt>
      <trkpt lat="46.83517" lon="6.32036">
        <ele>891</ele>
        <time>2020-09-01T20:34:15Z</time>
      </trkpt>
      <trkpt lat="46.83506" lon="6.32052">
        <ele>888</ele>
        <time>2020-09-01T20:34:35Z</time>
      </trkpt>
      <trkpt lat="46.83504" lon="6.32076">
        <ele>885</ele>
        <time>2020-09-01T20:34:58Z</time>
      </trkpt>
      <trkpt lat="46.83428" lon="6.3218">
        <ele>879</ele>
        <time>2020-09-01T20:37:16Z</time>
      </trkpt>
      <trkpt lat="46.83413" lon="6.32212">
        <ele>881</ele>
        <time>2020-09-01T20:37:52Z</time>
      </trkpt>
      <trkpt lat="46.8341" lon="6.32237">
        <ele>883</ele>
        <time>2020-09-01T20:38:15Z</time>
      </trkpt>
      <trkpt lat="46.83396" lon="6.32265">
        <ele>882</ele>
        <time>2020-09-01T20:38:47Z</time>
      </trkpt>
      <trkpt lat="46.83403" lon="6.3228">
        <ele>883</ele>
        <time>2020-09-01T20:39:03Z</time>
      </trkpt>
      <trkpt lat="46.83411" lon="6.3231">
        <ele>885</ele>
        <time>2020-09-01T20:39:33Z</time>
      </trkpt>
      <trkpt lat="46.83418" lon="6.32324">
        <ele>887</ele>
        <time>2020-09-01T20:39:48Z</time>
      </trkpt>
      <trkpt lat="46.83429" lon="6.32358">
        <ele>888</ele>
        <time>2020-09-01T20:40:23Z</time>
      </trkpt>
      <trkpt lat="46.83459" lon="6.32432">
        <ele>893</ele>
        <time>2020-09-01T20:41:41Z</time>
      </trkpt>
      <trkpt lat="46.83474" lon="6.3249">
        <ele>896</ele>
        <time>2020-09-01T20:42:38Z</time>
      </trkpt>
      <trkpt lat="46.83484" lon="6.32513">
        <ele>898</ele>
        <time>2020-09-01T20:43:03Z</time>
      </trkpt>
      <trkpt lat="46.83494" lon="6.32564">
        <ele>899</ele>
        <time>2020-09-01T20:43:51Z</time>
      </trkpt>
      <trkpt lat="46.83506" lon="6.32605">
        <ele>898</ele>
        <time>2020-09-01T20:44:32Z</time>
      </trkpt>
      <trkpt lat="46.83533" lon="6.32662">
        <ele>897</ele>
        <time>2020-09-01T20:45:35Z</time>
      </trkpt>
      <trkpt lat="46.83558" lon="6.32723">
        <ele>897</ele>
        <time>2020-09-01T20:46:40Z</time>
      </trkpt>
      <trkpt lat="46.83574" lon="6.32777">
        <ele>897</ele>
        <time>2020-09-01T20:47:34Z</time>
      </trkpt>
      <trkpt lat="46.83607" lon="6.32852">
        <ele>898</ele>
        <time>2020-09-01T20:48:55Z</time>
      </trkpt>
      <trkpt lat="46.83622" lon="6.32894">
        <ele>897</ele>
        <time>2020-09-01T20:49:39Z</time>
      </trkpt>
      <trkpt lat="46.8364" lon="6.32903">
        <ele>902</ele>
        <time>2020-09-01T20:50:04Z</time>
      </trkpt>
      <trkpt lat="46.83644" lon="6.3291">
        <ele>903</ele>
        <time>2020-09-01T20:50:12Z</time>
      </trkpt>
      <trkpt lat="46.83641" lon="6.32917">
        <ele>901</ele>
        <time>2020-09-01T20:50:20Z</time>
      </trkpt>
      <trkpt lat="46.83639" lon="6.32934">
        <ele>897</ele>
        <time>2020-09-01T20:50:36Z</time>
      </trkpt>
      <trkpt lat="46.83644" lon="6.3296">
        <ele>894</ele>
        <time>2020-09-01T20:51:00Z</time>
      </trkpt>
      <trkpt lat="46.83654" lon="6.32975">
        <ele>895</ele>
        <time>2020-09-01T20:51:19Z</time>
      </trkpt>
      <trkpt lat="46.83662" lon="6.32999">
        <ele>893</ele>
        <time>2020-09-01T20:51:44Z</time>
      </trkpt>
      <trkpt lat="46.8367" lon="6.33011">
        <ele>893</ele>
        <time>2020-09-01T20:51:59Z</time>
      </trkpt>
      <trkpt lat="46.83668" lon="6.33036">
        <ele>890</ele>
        <time>2020-09-01T20:52:22Z</time>
      </trkpt>
      <trkpt lat="46.83659" lon="6.33064">
        <ele>884</ele>
        <time>2020-09-01T20:52:50Z</time>
      </trkpt>
      <trkpt lat="46.83651" lon="6.33119">
        <ele>873</ele>
        <time>2020-09-01T20:53:42Z</time>
      </trkpt>
      <trkpt lat="46.83656" lon="6.33124">
        <ele>873</ele>
        <time>2020-09-01T20:53:50Z</time>
      </trkpt>
      <trkpt lat="46.83671" lon="6.33128">
        <ele>875</ele>
        <time>2020-09-01T20:54:10Z</time>
      </trkpt>
      <trkpt lat="46.83686" lon="6.3314">
        <ele>876</ele>
        <time>2020-09-01T20:54:33Z</time>
      </trkpt>
      <trkpt lat="46.83688" lon="6.33146">
        <ele>875</ele>
        <time>2020-09-01T20:54:39Z</time>
      </trkpt>
      <trkpt lat="46.83686" lon="6.33167">
        <ele>870</ele>
        <time>2020-09-01T20:54:58Z</time>
      </trkpt>
      <trkpt lat="46.83689" lon="6.33185">
        <ele>868</ele>
        <time>2020-09-01T20:55:15Z</time>
      </trkpt>
      <trkpt lat="46.83687" lon="6.33223">
        <ele>862</ele>
        <time>2020-09-01T20:55:50Z</time>
      </trkpt>
      <trkpt lat="46.83689" lon="6.33233">
        <ele>861</ele>
        <time>2020-09-01T20:55:59Z</time>
      </trkpt>
      <trkpt lat="46.83692" lon="6.33236">
        <ele>861</ele>
        <time>2020-09-01T20:56:04Z</time>
      </trkpt>
      <trkpt lat="46.837" lon="6.33243">
        <ele>861</ele>
        <time>2020-09-01T20:56:17Z</time>
      </trkpt>
      <trkpt lat="46.83725" lon="6.33238">
        <ele>865</ele>
        <time>2020-09-01T20:56:50Z</time>
      </trkpt>
      <trkpt lat="46.83749" lon="6.33245">
        <ele>867</ele>
        <time>2020-09-01T20:57:23Z</time>
      </trkpt>
      <trkpt lat="46.83763" lon="6.33279">
        <ele>862</ele>
        <time>2020-09-01T20:57:59Z</time>
      </trkpt>
      <trkpt lat="46.83773" lon="6.33283">
        <ele>861</ele>
        <time>2020-09-01T20:58:13Z</time>
      </trkpt>
      <trkpt lat="46.8385" lon="6.33302">
        <ele>860</ele>
        <time>2020-09-01T20:59:57Z</time>
      </trkpt>
      <trkpt lat="46.83885" lon="6.33305">
        <ele>860</ele>
        <time>2020-09-01T21:00:44Z</time>
      </trkpt>
      <trkpt lat="46.83912" lon="6.33302">
        <ele>862</ele>
        <time>2020-09-01T21:01:20Z</time>
      </trkpt>
      <trkpt lat="46.83917" lon="6.33305">
        <ele>862</ele>
        <time>2020-09-01T21:01:27Z</time>
      </trkpt>
      <trkpt lat="46.83969" lon="6.33358">
        <ele>858</ele>
        <time>2020-09-01T21:02:52Z</time>
      </trkpt>
      <trkpt lat="46.83988" lon="6.33371">
        <ele>858</ele>
        <time>2020-09-01T21:03:20Z</time>
      </trkpt>
      <trkpt lat="46.84004" lon="6.33375">
        <ele>858</ele>
        <time>2020-09-01T21:03:42Z</time>
      </trkpt>
      <trkpt lat="46.84016" lon="6.33396">
        <ele>855</ele>
        <time>2020-09-01T21:04:07Z</time>
      </trkpt>
      <trkpt lat="46.84038" lon="6.33411">
        <ele>852</ele>
        <time>2020-09-01T21:04:39Z</time>
      </trkpt>
      <trkpt lat="46.84041" lon="6.33421">
        <ele>852</ele>
        <time>2020-09-01T21:04:49Z</time>
      </trkpt>
      <trkpt lat="46.84049" lon="6.33496">
        <ele>855</ele>
        <time>2020-09-01T21:05:58Z</time>
      </trkpt>
      <trkpt lat="46.84058" lon="6.33492">
        <ele>855</ele>
        <time>2020-09-01T21:06:11Z</time>
      </trkpt>
      <trkpt lat="46.84071" lon="6.33491">
        <ele>855</ele>
        <time>2020-09-01T21:06:28Z</time>
      </trkpt>
      <trkpt lat="46.84113" lon="6.33496">
        <ele>855</ele>
        <time>2020-09-01T21:07:25Z</time>
      </trkpt>
      <trkpt lat="46.84124" lon="6.33501">
        <ele>856</ele>
        <time>2020-09-01T21:07:40Z</time>
      </trkpt>
      <trkpt lat="46.84171" lon="6.33534">
        <ele>861</ele>
        <time>2020-09-01T21:08:49Z</time>
      </trkpt>
      <trkpt lat="46.84192" lon="6.33541">
        <ele>860</ele>
        <time>2020-09-01T21:09:18Z</time>
      </trkpt>
      <trkpt lat="46.84237" lon="6.33542">
        <ele>856</ele>
        <time>2020-09-01T21:10:18Z</time>
      </trkpt>
      <trkpt lat="46.84305" lon="6.33573">
        <ele>857</ele>
        <time>2020-09-01T21:11:53Z</time>
      </trkpt>
      <trkpt lat="46.84325" lon="6.33573">
        <ele>857</ele>
        <time>2020-09-01T21:12:20Z</time>
      </trkpt>
      <trkpt lat="46.84363" lon="6.33546">
        <ele>855</ele>
        <time>2020-09-01T21:13:16Z</time>
      </trkpt>
      <trkpt lat="46.84373" lon="6.33535">
        <ele>854</ele>
        <time>2020-09-01T21:13:33Z</time>
      </trkpt>
      <trkpt lat="46.84433" lon="6.33447">
        <ele>853</ele>
        <time>2020-09-01T21:15:27Z</time>
      </trkpt>
      <trkpt lat="46.8445" lon="6.33431">
        <ele>854</ele>
        <time>2020-09-01T21:15:53Z</time>
      </trkpt>
      <trkpt lat="46.84464" lon="6.33426">
        <ele>855</ele>
        <time>2020-09-01T21:16:13Z</time>
      </trkpt>
      <trkpt lat="46.84503" lon="6.33428">
        <ele>858</ele>
        <time>2020-09-01T21:17:05Z</time>
      </trkpt>
      <trkpt lat="46.84512" lon="6.33421">
        <ele>859</ele>
        <time>2020-09-01T21:17:18Z</time>
      </trkpt>
      <trkpt lat="46.84513" lon="6.33405">
        <ele>859</ele>
        <time>2020-09-01T21:17:33Z</time>
      </trkpt>
      <trkpt lat="46.84497" lon="6.33375">
        <ele>859</ele>
        <time>2020-09-01T21:18:08Z</time>
      </trkpt>
      <trkpt lat="46.84458" lon="6.33332">
        <ele>858</ele>
        <time>2020-09-01T21:19:13Z</time>
      </trkpt>
      <trkpt lat="46.84458" lon="6.33317">
        <ele>857</ele>
        <time>2020-09-01T21:19:27Z</time>
      </trkpt>
      <trkpt lat="46.84465" lon="6.33308">
        <ele>858</ele>
        <time>2020-09-01T21:19:39Z</time>
      </trkpt>
      <trkpt lat="46.84475" lon="6.33304">
        <ele>858</ele>
        <time>2020-09-01T21:19:53Z</time>
      </trkpt>
      <trkpt lat="46.84491" lon="6.3331">
        <ele>859</ele>
        <time>2020-09-01T21:20:15Z</time>
      </trkpt>
      <trkpt lat="46.84523" lon="6.3333">
        <ele>861</ele>
        <time>2020-09-01T21:21:01Z</time>
      </trkpt>
      <trkpt lat="46.84593" lon="6.33379">
        <ele>861</ele>
        <time>2020-09-01T21:22:45Z</time>
      </trkpt>
      <trkpt lat="46.84625" lon="6.33412">
        <ele>863</ele>
        <time>2020-09-01T21:23:37Z</time>
      </trkpt>
      <trkpt lat="46.84631" lon="6.33426">
        <ele>863</ele>
        <time>2020-09-01T21:23:52Z</time>
      </trkpt>
      <trkpt lat="46.84643" lon="6.33444">
        <ele>863</ele>
        <time>2020-09-01T21:24:15Z</time>
      </trkpt>
      <trkpt lat="46.84703" lon="6.33472">
        <ele>861</ele>
        <time>2020-09-01T21:25:39Z</time>
      </trkpt>
      <trkpt lat="46.84725" lon="6.33488">
        <ele>861</ele>
        <time>2020-09-01T21:26:12Z</time>
      </trkpt>
      <trkpt lat="46.84748" lon="6.33476">
        <ele>860</ele>
        <time>2020-09-01T21:26:45Z</time>
      </trkpt>
      <trkpt lat="46.84767" lon="6.33461">
        <ele>858</ele>
        <time>2020-09-01T21:27:14Z</time>
      </trkpt>
      <trkpt lat="46.84777" lon="6.33481">
        <ele>858</ele>
        <time>2020-09-01T21:27:36Z</time>
      </trkpt>
    </trkseg>
  </trk>
</gpx>